Bluff, North Carolina
Current Conditions -  °F | °C
As of 11:54 AM on Friday 24 Oct 2014 (Local Time) from KAVL Reporting Station
Clear Clear  
Wind Chill: 56°   Ceiling: Unl
Heat Index: 56°   Visibility: 10mi
Dew Point: 41°   Wind: 5mph
Humidity: 57%   Direction: NA
Pressure: 30.1"   Gusts: NA
Location:  35.8037°N, 82.868°W
Report Text: KAVL 241554Z VRB04KT 10SM CLR 13/05 A3010 RMK AO2 SLP184 T01330050
Loading
Personal Weather Stations






























Interactive Weather Map
Tropical Storm Tracking
New forecast layout! Learn more

10-Day Weather Forecast

Advertisements
Track Severe Weather on mobile